Terminal Aerodrome Forecast
Issued by NWS Wilmington, NC

Home | Current Version | Previous Version | Text Only | Print | Product List | Glossary On
Versions: 1 2 3 4 5 6 7 8 9 10 11 12 13
513
FTUS42 KILM 272005 AAA
TAFLBT
TAF AMD
KLBT 272005Z 2720/2818 11010KT P6SM VCTS BKN045CB
      TEMPO 2720/2722 4SM -TSRA
     FM280000 06003KT P6SM SCT030 SCT080
     FM280900 04004KT P6SM BKN007
     FM281300 06006KT P6SM SCT020 SCT035=

USA.gov is the U.S. government's official web portal to all federal, state and local government web resources and services.